Time;durP1;ratioP1;P1;durP2;ratioP2;P2;SDS_P1;SDS_P2;PMS_P1;PMS_P2;Temp;Humidity;BMP_temperature;BMP_pressure;BME280_temperature;BME280_humidity;BME280_pressure;Samples;Min_cycle;Max_cycle;Signal;HPM_P1;HPM_P2
2021/12/18 00:01:03;;;;;;;136.25;49.90;;;3.70;99.90;;;;;;4954279;29;20030;-72
2021/12/18 00:03:29;;;;;;;105.03;42.15;;;3.70;99.90;;;;;;4954449;28;20023;-72
2021/12/18 00:05:55;;;;;;;71.47;31.52;;;3.70;99.90;;;;;;4954306;29;20041;-73
2021/12/18 00:08:21;;;;;;;58.97;27.33;;;3.70;99.90;;;;;;4954540;29;20366;-72
2021/12/18 00:10:46;;;;;;;41.08;18.92;;;3.70;99.90;;;;;;4954354;29;20038;-72
2021/12/18 00:13:13;;;;;;;39.72;17.75;;;3.70;99.90;;;;;;4954509;29;20036;-72
2021/12/18 00:15:39;;;;;;;34.42;18.02;;;3.70;99.90;;;;;;4954210;28;20025;-72
2021/12/18 00:18:05;;;;;;;29.85;16.58;;;3.60;99.90;;;;;;4954374;28;20070;-72
2021/12/18 00:20:31;;;;;;;34.33;16.08;;;3.60;99.90;;;;;;4954164;29;20059;-72
2021/12/18 00:22:57;;;;;;;35.92;16.40;;;3.60;99.90;;;;;;4954380;29;20034;-72
2021/12/18 00:25:23;;;;;;;41.42;19.58;;;3.60;99.90;;;;;;4954295;28;20023;-72
2021/12/18 00:27:50;;;;;;;40.58;16.27;;;3.50;99.90;;;;;;4954211;29;20028;-72
2021/12/18 00:30:16;;;;;;;39.22;18.02;;;3.50;99.90;;;;;;4954196;29;20093;-72
2021/12/18 00:32:42;;;;;;;41.80;20.02;;;3.50;99.90;;;;;;4954139;29;20074;-72
2021/12/18 00:35:08;;;;;;;51.10;21.08;;;3.50;99.90;;;;;;4954227;29;20031;-72
2021/12/18 00:37:33;;;;;;;40.33;17.60;;;3.50;99.90;;;;;;4954377;29;20031;-72
2021/12/18 00:40:01;;;;;;;34.47;17.02;;;3.50;99.90;;;;;;4952941;28;20035;-73
2021/12/18 00:42:41;;;;;;;39.90;18.42;;;3.50;99.90;;;;;;4954199;29;20060;-72
2021/12/18 00:45:14;;;;;;;39.70;18.70;;;3.50;99.90;;;;;;4955575;28;20025;-72
2021/12/18 00:47:40;;;;;;;35.53;17.85;;;3.50;99.90;;;;;;4957412;29;20110;-72
2021/12/18 00:50:09;;;;;;;39.28;16.88;;;3.50;99.90;;;;;;4957629;29;20110;-72
2021/12/18 00:52:34;;;;;;;43.45;18.35;;;3.50;99.90;;;;;;4957480;29;20027;-71
2021/12/18 00:55:00;;;;;;;39.45;16.90;;;3.50;99.90;;;;;;4957019;29;20027;-72
2021/12/18 00:57:26;;;;;;;69.63;29.60;;;3.40;99.90;;;;;;4957332;29;20431;-73
2021/12/18 00:59:54;;;;;;;48.63;21.92;;;3.40;99.90;;;;;;4957263;29;20114;-72
2021/12/18 01:02:20;;;;;;;44.92;20.70;;;3.40;99.90;;;;;;4957363;29;20027;-72
2021/12/18 01:04:46;;;;;;;46.00;21.83;;;3.40;99.90;;;;;;4957222;29;20102;-72
2021/12/18 01:07:12;;;;;;;41.00;19.83;;;3.40;99.90;;;;;;4956793;29;20459;-72
2021/12/18 01:12:15;;;;;;;41.17;18.90;;;3.40;99.90;;;;;;4957186;29;20023;-72
2021/12/18 01:14:59;;;;;;;39.60;20.13;;;3.40;99.90;;;;;;4957093;28;20034;-72
2021/12/18 01:22:45;;;;;;;35.10;19.15;;;3.40;99.90;;;;;;4956886;29;20063;-72
2021/12/18 01:25:12;;;;;;;46.65;21.55;;;3.40;99.90;;;;;;4957181;29;20019;-72
2021/12/18 01:27:38;;;;;;;52.65;24.15;;;3.50;99.90;;;;;;4956729;28;20027;-72
2021/12/18 01:30:07;;;;;;;50.90;21.83;;;3.40;99.90;;;;;;4956651;29;20110;-72
2021/12/18 01:32:33;;;;;;;43.75;20.92;;;3.40;99.90;;;;;;4957594;29;20027;-72
2021/12/18 01:34:58;;;;;;;42.78;20.52;;;3.40;99.90;;;;;;4957598;29;20054;-72
2021/12/18 01:37:24;;;;;;;49.50;22.55;;;3.40;99.90;;;;;;4957216;28;20049;-72
2021/12/18 01:39:52;;;;;;;52.42;21.50;;;3.40;99.90;;;;;;4957467;29;20427;-72
2021/12/18 01:45:13;;;;;;;48.95;22.98;;;3.40;99.90;;;;;;4957432;29;20371;-72
2021/12/18 01:53:11;;;;;;;43.22;21.55;;;3.30;99.90;;;;;;4956903;29;20375;-72
2021/12/18 01:55:38;;;;;;;44.22;20.65;;;3.30;99.90;;;;;;4956503;28;20023;-72
2021/12/18 01:58:05;;;;;;;44.38;19.90;;;3.30;99.90;;;;;;4956429;29;20070;-72
2021/12/18 02:00:36;;;;;;;46.15;19.80;;;3.30;99.90;;;;;;4957117;29;20027;-72
2021/12/18 02:03:03;;;;;;;44.40;20.92;;;3.30;99.90;;;;;;4956545;29;20370;-72
2021/12/18 02:05:29;;;;;;;40.50;21.20;;;3.20;99.90;;;;;;4956953;28;20114;-72
2021/12/18 02:07:55;;;;;;;39.70;19.10;;;3.20;99.90;;;;;;4956958;28;20042;-72
2021/12/18 02:10:25;;;;;;;44.67;20.05;;;3.20;99.90;;;;;;4956558;29;20031;-72
2021/12/18 02:13:09;;;;;;;42.65;19.33;;;3.20;99.90;;;;;;4956785;29;20023;-72
2021/12/18 02:21:11;;;;;;;37.83;18.83;;;3.20;99.90;;;;;;4956496;29;20478;-71
2021/12/18 02:23:38;;;;;;;43.58;20.55;;;3.20;99.90;;;;;;4956559;29;20047;-72
2021/12/18 02:26:05;;;;;;;58.25;24.52;;;3.10;99.90;;;;;;4956311;29;20023;-72
2021/12/18 02:28:31;;;;;;;76.97;34.47;;;3.20;99.90;;;;;;4955862;28;20106;-72
2021/12/18 02:30:58;;;;;;;54.15;26.58;;;3.20;99.90;;;;;;4956574;29;20110;-72
2021/12/18 02:33:25;;;;;;;52.58;24.40;;;3.20;99.90;;;;;;4956395;29;20024;-72
2021/12/18 02:35:53;;;;;;;46.85;24.00;;;3.20;99.90;;;;;;4956513;28;20435;-72
2021/12/18 02:38:29;;;;;;;37.28;20.92;;;3.20;99.90;;;;;;4955971;29;20023;-72
2021/12/18 02:41:06;;;;;;;35.50;19.08;;;3.20;99.90;;;;;;4955927;28;20394;-72
2021/12/18 02:43:35;;;;;;;38.17;19.73;;;3.20;99.90;;;;;;4956091;29;20430;-72
2021/12/18 02:46:06;;;;;;;36.00;17.15;;;3.20;99.90;;;;;;4955975;28;20478;-72
2021/12/18 02:48:34;;;;;;;36.13;16.88;;;3.10;99.90;;;;;;4955542;29;20344;-71
2021/12/18 02:51:00;;;;;;;38.00;17.77;;;3.20;99.90;;;;;;4956166;28;20090;-73
2021/12/18 02:53:26;;;;;;;41.15;17.58;;;3.20;99.90;;;;;;4956253;29;20399;-72
2021/12/18 02:56:03;;;;;;;33.63;17.13;;;3.20;99.90;;;;;;4956095;29;20521;-72
2021/12/18 02:58:30;;;;;;;43.35;18.95;;;3.20;99.90;;;;;;4955705;29;20024;-72
2021/12/18 03:00:58;;;;;;;35.72;18.63;;;3.10;99.90;;;;;;4955926;29;20023;-71
2021/12/18 03:03:28;;;;;;;38.72;17.60;;;3.10;99.90;;;;;;4955650;28;20027;-72
2021/12/18 03:25:10;;;;;;;36.60;16.95;;;3.10;99.90;;;;;;4956022;29;20027;-72
2021/12/18 03:27:36;;;;;;;39.10;18.30;;;3.10;99.90;;;;;;4955491;29;20190;-72
2021/12/18 03:30:03;;;;;;;40.03;17.27;;;3.10;99.90;;;;;;4955345;29;20031;-72
2021/12/18 03:32:29;;;;;;;39.92;18.85;;;3.10;99.90;;;;;;4954811;29;20482;-72
2021/12/18 03:34:54;;;;;;;37.42;17.88;;;3.10;99.90;;;;;;4954733;29;20032;-72
2021/12/18 03:37:21;;;;;;;39.38;17.73;;;3.10;99.90;;;;;;4954818;28;20039;-72
2021/12/18 03:39:48;;;;;;;37.72;18.80;;;3.10;99.90;;;;;;4955266;29;20031;-71
2021/12/18 03:42:14;;;;;;;35.33;17.70;;;3.10;99.90;;;;;;4954093;29;20363;-72
2021/12/18 03:44:40;;;;;;;35.58;17.67;;;3.10;99.90;;;;;;4955435;29;20031;-73
2021/12/18 03:47:06;;;;;;;40.50;18.85;;;3.10;99.90;;;;;;4954741;28;20032;-72
2021/12/18 03:49:33;;;;;;;29.65;16.10;;;3.10;99.90;;;;;;4955488;29;20034;-72
2021/12/18 03:51:59;;;;;;;30.38;12.98;;;3.10;99.90;;;;;;4955449;29;20132;-72
2021/12/18 03:54:25;;;;;;;22.77;13.43;;;3.10;99.90;;;;;;4955256;29;20019;-72
2021/12/18 03:56:51;;;;;;;28.63;14.63;;;3.10;99.90;;;;;;4954904;29;20078;-72
2021/12/18 03:59:17;;;;;;;30.52;14.85;;;3.10;99.90;;;;;;4955345;28;20029;-72
2021/12/18 04:01:43;;;;;;;33.42;15.90;;;3.10;99.90;;;;;;4955195;29;20035;-72
2021/12/18 04:04:10;;;;;;;33.47;15.07;;;3.00;99.90;;;;;;4955269;28;20054;-71
2021/12/18 04:06:39;;;;;;;32.30;16.23;;;3.00;99.90;;;;;;4954999;29;20027;-72
2021/12/18 04:09:06;;;;;;;34.70;14.88;;;3.00;99.90;;;;;;4955056;29;20081;-71
2021/12/18 04:11:32;;;;;;;40.55;16.15;;;3.00;99.90;;;;;;4955203;28;20055;-71
2021/12/18 04:13:59;;;;;;;39.05;15.57;;;2.90;99.90;;;;;;4954728;29;20098;-72
2021/12/18 04:16:24;;;;;;;31.63;15.63;;;2.90;99.90;;;;;;4954990;29;20051;-72
2021/12/18 04:18:50;;;;;;;39.35;16.90;;;2.90;99.90;;;;;;4955089;28;20063;-72
2021/12/18 04:21:16;;;;;;;40.80;16.40;;;3.00;99.90;;;;;;4958076;29;20030;-72
2021/12/18 04:23:42;;;;;;;35.63;15.90;;;2.90;99.90;;;;;;4958718;29;20027;-71
2021/12/18 04:26:07;;;;;;;28.48;15.88;;;2.90;99.90;;;;;;4958619;28;20020;-72
2021/12/18 04:28:33;;;;;;;34.38;16.50;;;2.90;99.90;;;;;;4958503;29;20451;-72
2021/12/18 04:30:59;;;;;;;51.00;20.45;;;2.90;99.90;;;;;;4958361;29;20039;-72
2021/12/18 04:33:26;;;;;;;47.03;22.92;;;2.90;99.90;;;;;;4958180;29;20028;-72
2021/12/18 04:35:52;;;;;;;47.20;21.17;;;2.90;99.90;;;;;;4958704;28;20025;-72
2021/12/18 04:38:18;;;;;;;31.98;15.57;;;2.90;99.90;;;;;;4958310;28;20023;-72
2021/12/18 04:40:44;;;;;;;37.08;16.77;;;2.80;99.90;;;;;;4958269;28;20056;-71
2021/12/18 04:43:10;;;;;;;33.50;16.40;;;2.80;99.90;;;;;;4958140;29;20112;-72
2021/12/18 04:45:36;;;;;;;38.47;16.42;;;2.80;99.90;;;;;;4958304;28;20027;-72
2021/12/18 04:48:02;;;;;;;34.95;16.95;;;2.80;99.90;;;;;;4958519;28;20054;-71
2021/12/18 04:50:28;;;;;;;36.78;17.13;;;2.80;99.90;;;;;;4958045;29;20031;-72
2021/12/18 04:52:53;;;;;;;39.80;17.42;;;2.80;99.90;;;;;;4958015;28;20521;-71
2021/12/18 04:55:20;;;;;;;49.10;19.92;;;2.80;99.90;;;;;;4958151;29;20135;-72
2021/12/18 04:57:46;;;;;;;77.20;30.15;;;2.80;99.90;;;;;;4958282;28;20039;-72
2021/12/18 05:00:15;;;;;;;97.05;35.35;;;2.70;99.90;;;;;;4957701;28;20074;-71
2021/12/18 05:02:43;;;;;;;78.60;33.90;;;2.70;99.90;;;;;;4958063;28;20027;-72
2021/12/18 05:05:14;;;;;;;77.43;31.77;;;2.70;99.90;;;;;;4958116;28;20030;-72
2021/12/18 05:07:41;;;;;;;59.88;26.10;;;2.70;99.90;;;;;;4958106;29;20023;-72
2021/12/18 05:10:09;;;;;;;66.25;32.15;;;2.60;99.90;;;;;;4958117;28;20027;-72
2021/12/18 05:12:35;;;;;;;55.63;27.92;;;2.60;99.90;;;;;;4957895;29;20059;-71
2021/12/18 05:15:00;;;;;;;50.40;23.75;;;2.60;99.90;;;;;;4957680;28;20047;-72
2021/12/18 05:17:26;;;;;;;51.55;22.30;;;2.60;99.90;;;;;;4957435;29;20031;-72
2021/12/18 05:19:52;;;;;;;57.10;34.97;;;2.60;99.90;;;;;;4957395;29;20027;-72
2021/12/18 05:22:18;;;;;;;56.67;26.95;;;2.60;99.90;;;;;;4957756;29;20023;-72
2021/12/18 05:24:44;;;;;;;39.38;20.58;;;2.60;99.90;;;;;;4957699;29;20070;-72
2021/12/18 05:27:11;;;;;;;43.95;22.80;;;2.60;99.90;;;;;;4957736;29;20031;-72
2021/12/18 05:29:36;;;;;;;47.08;26.15;;;2.60;99.90;;;;;;4957689;28;20366;-72
2021/12/18 05:32:02;;;;;;;56.70;29.65;;;2.60;99.90;;;;;;4957250;28;20034;-71
2021/12/18 05:34:33;;;;;;;74.53;37.65;;;2.60;99.90;;;;;;4957628;29;20031;-72
2021/12/18 05:39:27;;;;;;;49.05;26.52;;;2.60;99.90;;;;;;4957145;29;20041;-72
2021/12/18 05:41:54;;;;;;;46.60;26.33;;;2.60;99.90;;;;;;4957676;29;20039;-72
2021/12/18 05:44:22;;;;;;;72.85;28.02;;;2.60;99.90;;;;;;4957392;28;20019;-72
2021/12/18 05:46:48;;;;;;;101.28;39.55;;;2.60;99.90;;;;;;4957224;28;20058;-72
2021/12/18 05:49:15;;;;;;;94.40;36.58;;;2.60;99.90;;;;;;4957070;29;20033;-72
2021/12/18 05:51:42;;;;;;;94.63;46.47;;;2.60;99.90;;;;;;4956900;29;20054;-71
2021/12/18 05:54:09;;;;;;;75.20;32.47;;;2.50;99.90;;;;;;4956962;29;20026;-72
2021/12/18 05:56:36;;;;;;;61.97;25.42;;;2.50;99.90;;;;;;4956818;29;20103;-72
2021/12/18 05:59:03;;;;;;;64.05;24.00;;;2.60;99.90;;;;;;4957102;28;20057;-72
2021/12/18 06:01:29;;;;;;;59.50;26.65;;;2.60;99.90;;;;;;4956756;28;20019;-72
2021/12/18 06:03:56;;;;;;;95.13;28.00;;;2.50;99.90;;;;;;4957295;29;20364;-71
2021/12/18 06:06:24;;;;;;;74.30;27.05;;;2.50;99.90;;;;;;4957021;29;20478;-72
2021/12/18 06:08:50;;;;;;;62.38;26.08;;;2.50;99.90;;;;;;4956495;28;20073;-72
2021/12/18 06:11:19;;;;;;;49.95;21.30;;;2.50;99.90;;;;;;4956755;28;20114;-71
2021/12/18 06:13:47;;;;;;;43.88;20.88;;;2.50;99.90;;;;;;4956722;29;20078;-72
2021/12/18 06:16:14;;;;;;;55.85;28.05;;;2.50;99.90;;;;;;4956714;28;20027;-71
2021/12/18 06:18:42;;;;;;;50.20;28.13;;;2.50;99.90;;;;;;4956334;28;20110;-72
2021/12/18 06:21:09;;;;;;;47.75;26.80;;;2.50;99.90;;;;;;4956551;29;20026;-72
2021/12/18 06:23:36;;;;;;;53.97;30.50;;;2.50;99.90;;;;;;4956026;29;20031;-72
2021/12/18 06:26:02;;;;;;;51.63;29.00;;;2.50;99.90;;;;;;4956134;29;20483;-72
2021/12/18 06:28:28;;;;;;;50.60;27.25;;;2.50;99.90;;;;;;4956402;28;20062;-72
2021/12/18 06:30:54;;;;;;;46.25;23.75;;;2.50;99.90;;;;;;4956888;28;20114;-72
2021/12/18 06:33:20;;;;;;;47.83;24.77;;;2.50;99.90;;;;;;4956647;29;20106;-72
2021/12/18 06:35:45;;;;;;;40.72;21.20;;;2.60;99.90;;;;;;4956060;28;20030;-73
2021/12/18 06:38:11;;;;;;;41.85;22.75;;;2.60;99.90;;;;;;4956096;29;20517;-72
2021/12/18 06:40:37;;;;;;;50.72;24.50;;;2.50;99.90;;;;;;4956006;28;20050;-72
2021/12/18 06:43:03;;;;;;;54.55;26.55;;;2.60;99.90;;;;;;4954547;28;20023;-73
2021/12/18 06:45:29;;;;;;;43.40;21.77;;;2.60;99.90;;;;;;4955035;29;20477;-73
2021/12/18 06:47:55;;;;;;;39.65;21.27;;;2.60;99.90;;;;;;4956017;29;20031;-73
2021/12/18 06:50:21;;;;;;;59.03;26.35;;;2.60;99.90;;;;;;4955886;29;20496;-73
2021/12/18 06:52:47;;;;;;;73.70;33.25;;;2.60;99.90;;;;;;4955818;28;20033;-70
2021/12/18 06:55:14;;;;;;;83.85;39.72;;;2.60;99.90;;;;;;4956193;28;20019;-70
2021/12/18 06:57:40;;;;;;;95.18;43.78;;;2.60;99.90;;;;;;4955885;29;20027;-70
2021/12/18 07:00:10;;;;;;;93.65;43.80;;;2.60;99.90;;;;;;4956046;29;20030;-70
2021/12/18 07:02:36;;;;;;;77.68;36.05;;;2.60;99.90;;;;;;4955139;28;20034;-70
2021/12/18 07:05:02;;;;;;;68.30;28.20;;;2.60;99.90;;;;;;4955512;29;20102;-71
2021/12/18 07:07:27;;;;;;;73.25;30.08;;;2.60;99.90;;;;;;4955896;29;20114;-71
2021/12/18 07:09:53;;;;;;;70.10;31.55;;;2.50;99.90;;;;;;4955550;28;20031;-72
2021/12/18 07:12:19;;;;;;;81.05;33.10;;;2.50;99.90;;;;;;4955733;29;20358;-72
2021/12/18 07:14:45;;;;;;;73.40;35.13;;;2.60;99.90;;;;;;4955834;29;20033;-73
2021/12/18 07:17:11;;;;;;;84.20;39.58;;;2.60;99.90;;;;;;4955692;29;20027;-72
2021/12/18 07:19:37;;;;;;;83.82;39.47;;;2.60;99.90;;;;;;4955018;28;20059;-73
2021/12/18 07:22:03;;;;;;;78.50;35.30;;;2.70;99.90;;;;;;4955589;29;20058;-73
2021/12/18 07:24:29;;;;;;;84.68;36.33;;;2.70;99.90;;;;;;4955260;28;20019;-73
2021/12/18 07:26:55;;;;;;;115.60;49.65;;;2.70;99.90;;;;;;4955613;29;20027;-73
2021/12/18 07:29:22;;;;;;;168.23;78.45;;;2.70;99.90;;;;;;4955686;28;20134;-73
2021/12/18 07:31:49;;;;;;;156.75;74.38;;;2.70;99.90;;;;;;4955368;29;20019;-72
2021/12/18 07:34:15;;;;;;;215.57;101.15;;;2.70;99.90;;;;;;4955649;28;20026;-72
2021/12/18 07:36:40;;;;;;;179.93;77.13;;;2.70;99.90;;;;;;4954300;29;20023;-72
2021/12/18 07:39:07;;;;;;;178.48;77.78;;;2.70;99.90;;;;;;4954530;28;20034;-72
2021/12/18 07:41:33;;;;;;;161.73;75.43;;;2.70;99.90;;;;;;4954663;28;20047;-72
2021/12/18 07:43:59;;;;;;;148.40;72.82;;;2.70;99.90;;;;;;4954837;28;20470;-72
2021/12/18 07:46:25;;;;;;;166.27;80.88;;;2.70;99.90;;;;;;4954812;29;20047;-73
2021/12/18 07:48:50;;;;;;;145.45;70.18;;;2.80;99.90;;;;;;4954638;29;20111;-72
2021/12/18 07:51:16;;;;;;;197.07;98.05;;;2.80;99.90;;;;;;4954812;28;20038;-73
2021/12/18 07:53:42;;;;;;;148.07;78.93;;;2.90;99.90;;;;;;4955031;28;20113;-73
2021/12/18 07:56:11;;;;;;;111.20;55.83;;;2.90;99.90;;;;;;4957858;29;20043;-73
2021/12/18 07:58:37;;;;;;;101.25;47.92;;;2.90;99.90;;;;;;4959232;28;20038;-72
2021/12/18 08:01:04;;;;;;;123.43;56.97;;;2.90;99.90;;;;;;4959228;29;20027;-72
2021/12/18 08:03:29;;;;;;;94.20;46.05;;;2.90;99.90;;;;;;4959255;29;20034;-72
2021/12/18 08:05:55;;;;;;;110.00;57.15;;;2.90;99.90;;;;;;4958844;28;20023;-73
2021/12/18 08:08:21;;;;;;;97.05;51.83;;;3.00;99.90;;;;;;4958905;29;20086;-72
2021/12/18 08:10:47;;;;;;;98.63;52.38;;;3.00;99.90;;;;;;4959485;28;20134;-73
2021/12/18 08:13:13;;;;;;;95.32;45.42;;;3.00;99.90;;;;;;4958601;29;20107;-72
2021/12/18 08:15:39;;;;;;;97.60;44.95;;;3.10;99.90;;;;;;4959060;29;20061;-72
2021/12/18 08:18:07;;;;;;;100.32;48.67;;;3.00;99.90;;;;;;4959100;29;20447;-73
2021/12/18 08:20:36;;;;;;;94.95;47.92;;;3.00;99.90;;;;;;4958605;29;20062;-72
2021/12/18 08:23:03;;;;;;;99.18;49.30;;;3.10;99.90;;;;;;4958627;28;20023;-72
2021/12/18 08:25:30;;;;;;;123.13;62.22;;;3.10;99.90;;;;;;4959024;29;20050;-72
2021/12/18 08:27:59;;;;;;;120.03;49.80;;;3.10;99.90;;;;;;4958307;28;20090;-72
2021/12/18 08:30:28;;;;;;;129.75;57.60;;;3.10;99.90;;;;;;4958092;29;20027;-72
2021/12/18 08:32:55;;;;;;;192.02;84.18;;;3.10;99.90;;;;;;4958369;29;20074;-73
2021/12/18 08:35:21;;;;;;;176.50;68.20;;;3.40;99.90;;;;;;4958326;28;20011;-73
2021/12/18 08:37:47;;;;;;;216.35;69.75;;;3.60;99.90;;;;;;4958373;29;20106;-71
2021/12/18 08:40:13;;;;;;;181.30;69.95;;;3.80;99.90;;;;;;4957878;28;20024;-71
2021/12/18 08:42:39;;;;;;;164.15;60.42;;;3.90;99.90;;;;;;4957919;29;20026;-71
2021/12/18 08:45:06;;;;;;;186.55;63.05;;;4.10;99.90;;;;;;4958234;29;20019;-71
2021/12/18 08:47:32;;;;;;;282.55;96.22;;;4.20;99.90;;;;;;4958112;29;20024;-70
2021/12/18 08:49:57;;;;;;;252.82;88.57;;;4.30;99.90;;;;;;4957770;29;20027;-71
2021/12/18 08:52:23;;;;;;;226.55;75.30;;;4.50;99.90;;;;;;4958326;28;20023;-70
2021/12/18 08:54:49;;;;;;;152.82;57.85;;;4.60;99.90;;;;;;4957821;29;20451;-70
2021/12/18 08:57:15;;;;;;;65.25;33.10;;;4.70;99.90;;;;;;4958599;29;20394;-70
2021/12/18 08:59:41;;;;;;;67.97;34.65;;;4.80;99.90;;;;;;4958137;29;20019;-71
2021/12/18 09:02:08;;;;;;;83.25;36.35;;;4.90;99.90;;;;;;4957992;29;20374;-70
2021/12/18 09:04:34;;;;;;;83.53;38.90;;;4.90;99.90;;;;;;4957617;28;20023;-70
2021/12/18 09:07:00;;;;;;;96.60;41.05;;;5.10;99.90;;;;;;4956777;28;20031;-71
2021/12/18 09:09:26;;;;;;;165.40;94.15;;;5.10;99.90;;;;;;4957902;28;20389;-70
2021/12/18 09:11:51;;;;;;;71.25;38.80;;;5.40;99.90;;;;;;4958198;29;20186;-70
2021/12/18 09:14:18;;;;;;;42.00;21.58;;;5.70;99.90;;;;;;4958391;28;20077;-71
2021/12/18 09:16:44;;;;;;;109.88;50.08;;;5.90;99.90;;;;;;4957336;29;20355;-71
2021/12/18 09:19:10;;;;;;;81.25;36.75;;;5.80;99.90;;;;;;4955000;29;20458;-71
2021/12/18 09:21:35;;;;;;;128.48;61.38;;;5.70;99.90;;;;;;4957373;29;20015;-71
2021/12/18 09:24:02;;;;;;;44.20;23.48;;;5.60;99.90;;;;;;4957191;28;20018;-71
2021/12/18 09:26:28;;;;;;;59.78;30.45;;;5.40;99.90;;;;;;4957131;29;20066;-71
2021/12/18 09:28:54;;;;;;;113.32;48.63;;;5.20;99.90;;;;;;4957305;28;20031;-70
2021/12/18 09:31:20;;;;;;;174.75;72.28;;;5.00;99.90;;;;;;4957652;28;20039;-70
2021/12/18 09:33:46;;;;;;;121.70;48.42;;;5.00;99.90;;;;;;4957487;29;20517;-72
2021/12/18 09:36:12;;;;;;;152.18;59.95;;;5.00;99.90;;;;;;4957401;28;20026;-70
2021/12/18 09:38:38;;;;;;;167.57;70.13;;;5.00;99.90;;;;;;4957250;29;20078;-70
2021/12/18 09:41:06;;;;;;;85.85;37.10;;;5.10;99.90;;;;;;4956697;28;20051;-69
2021/12/18 09:43:32;;;;;;;73.60;37.50;;;5.10;99.90;;;;;;4957192;29;20019;-70
2021/12/18 09:46:10;;;;;;;95.68;47.15;;;5.20;99.90;;;;;;4955353;28;20033;-70
2021/12/18 09:48:38;;;;;;;59.67;28.40;;;5.10;99.90;;;;;;4956222;29;20023;-70
2021/12/18 09:51:08;;;;;;;75.03;35.22;;;5.10;99.90;;;;;;4956883;28;20479;-71
2021/12/18 09:53:35;;;;;;;78.25;33.22;;;5.20;99.90;;;;;;4957090;29;20110;-70
2021/12/18 09:56:05;;;;;;;97.47;44.50;;;5.20;99.90;;;;;;4955834;28;20031;-70
2021/12/18 09:58:31;;;;;;;75.97;37.38;;;5.30;99.90;;;;;;4956428;28;20035;-70
2021/12/18 10:00:58;;;;;;;78.40;35.15;;;5.30;99.90;;;;;;4954383;29;20074;-70
2021/12/18 10:03:45;;;;;;;63.90;32.10;;;5.40;99.90;;;;;;4956076;29;20507;-70
2021/12/18 10:06:35;;;;;;;100.13;45.25;;;5.40;99.90;;;;;;4956438;28;20450;-71
2021/12/18 10:09:17;;;;;;;60.97;29.65;;;5.40;99.90;;;;;;4956635;29;20035;-70
2021/12/18 10:11:52;;;;;;;71.10;34.15;;;5.40;99.90;;;;;;4956455;29;20031;-71
2021/12/18 10:14:19;;;;;;;85.47;40.95;;;5.50;99.90;;;;;;4956173;29;20479;-70
2021/12/18 10:16:49;;;;;;;70.82;35.38;;;5.40;99.90;;;;;;4956434;28;20019;-70
2021/12/18 10:19:30;;;;;;;81.05;41.28;;;5.40;99.90;;;;;;4956183;29;20031;-70
2021/12/18 10:22:05;;;;;;;69.55;34.92;;;5.40;99.90;;;;;;4957060;29;20023;-70
2021/12/18 10:24:33;;;;;;;106.63;51.03;;;5.40;99.90;;;;;;4956946;28;20034;-71
2021/12/18 10:27:01;;;;;;;143.15;57.60;;;5.30;99.90;;;;;;4956494;29;20048;-70
2021/12/18 10:29:35;;;;;;;130.13;51.50;;;5.40;99.90;;;;;;4956707;29;20046;-70
2021/12/18 10:32:13;;;;;;;86.07;35.67;;;5.30;99.90;;;;;;4956800;29;20450;-71
2021/12/18 10:34:42;;;;;;;65.95;27.42;;;5.30;99.90;;;;;;4956353;29;20052;-70
2021/12/18 10:37:39;;;;;;;74.93;31.58;;;5.30;99.90;;;;;;4956606;28;20038;-70
2021/12/18 10:40:10;;;;;;;179.60;66.05;;;5.30;99.90;;;;;;4896941;29;20040;-70
2021/12/18 10:42:42;;;;;;;101.28;40.45;;;5.30;99.90;;;;;;4897354;29;20092;-70
2021/12/18 10:45:11;;;;;;;116.03;46.88;;;5.30;99.90;;;;;;4897409;29;20043;-70
2021/12/18 10:47:46;;;;;;;76.55;32.38;;;5.30;99.90;;;;;;4896960;29;20073;-70
2021/12/18 10:50:24;;;;;;;164.57;66.63;;;5.30;99.90;;;;;;4897076;29;20477;-71
2021/12/18 10:52:59;;;;;;;171.43;67.95;;;5.30;99.90;;;;;;4897342;29;20554;-70
2021/12/18 10:55:32;;;;;;;205.10;83.82;;;5.30;99.90;;;;;;4896930;29;20116;-70
2021/12/18 10:57:59;;;;;;;209.77;84.03;;;5.30;99.90;;;;;;4897065;29;20044;-70
2021/12/18 11:00:35;;;;;;;138.02;59.25;;;5.30;99.90;;;;;;4897011;29;20032;-70
2021/12/18 11:03:18;;;;;;;133.15;58.63;;;5.30;99.90;;;;;;4896825;29;20028;-70
2021/12/18 11:06:04;;;;;;;101.30;47.67;;;5.30;99.90;;;;;;4896819;29;20021;-70
2021/12/18 11:08:31;;;;;;;65.47;30.48;;;5.30;99.90;;;;;;4896728;29;20040;-71
2021/12/18 11:13:50;;;;;;;112.63;52.38;;;5.40;99.90;;;;;;4897165;29;20392;-70
2021/12/18 11:16:17;;;;;;;86.47;40.47;;;5.40;99.90;;;;;;4911229;29;20475;-70
2021/12/18 11:18:45;;;;;;;80.93;36.95;;;5.40;99.90;;;;;;4955966;29;20027;-70
2021/12/18 11:21:11;;;;;;;133.52;54.45;;;5.50;99.90;;;;;;4956075;29;20023;-71
2021/12/18 11:24:00;;;;;;;144.27;61.58;;;5.50;99.90;;;;;;4955505;29;20454;-71
2021/12/18 11:26:41;;;;;;;131.27;54.10;;;5.50;99.90;;;;;;4955926;29;20027;-70
2021/12/18 11:29:31;;;;;;;136.30;58.90;;;5.50;99.90;;;;;;4955700;28;20109;-70
2021/12/18 11:31:58;;;;;;;77.53;33.20;;;5.50;99.90;;;;;;4955607;29;20126;-70
2021/12/18 11:34:25;;;;;;;57.22;28.63;;;5.50;99.90;;;;;;4956138;28;20023;-70
2021/12/18 11:36:53;;;;;;;84.95;41.83;;;5.50;99.90;;;;;;4955396;29;20019;-71
2021/12/18 11:39:23;;;;;;;38.28;18.73;;;5.50;99.90;;;;;;4955451;28;20366;-70
2021/12/18 11:41:52;;;;;;;75.15;33.38;;;5.50;99.90;;;;;;4956183;29;20100;-70
2021/12/18 11:44:26;;;;;;;65.18;29.10;;;5.50;99.90;;;;;;4955557;29;20023;-70
2021/12/18 11:46:53;;;;;;;54.47;24.40;;;5.50;99.90;;;;;;4955906;28;20031;-70
2021/12/18 11:49:21;;;;;;;64.53;28.75;;;5.60;99.90;;;;;;4955440;29;20031;-70
2021/12/18 11:52:04;;;;;;;72.95;32.65;;;5.50;99.90;;;;;;4955501;29;20027;-70
2021/12/18 11:54:42;;;;;;;69.90;32.17;;;5.50;99.90;;;;;;4955648;29;20485;-70
2021/12/18 11:57:08;;;;;;;87.63;43.90;;;5.40;99.90;;;;;;4955354;29;20459;-71
2021/12/18 11:59:44;;;;;;;78.93;37.22;;;5.40;99.90;;;;;;4955920;29;20359;-71
2021/12/18 12:02:12;;;;;;;90.60;45.17;;;5.40;99.90;;;;;;4955769;29;20098;-71
2021/12/18 12:04:59;;;;;;;64.53;31.77;;;5.30;99.90;;;;;;4955403;29;20023;-71
2021/12/18 12:07:27;;;;;;;87.60;39.03;;;5.30;99.90;;;;;;4945527;29;20118;-71
2021/12/18 12:10:35;;;;;;;90.43;44.63;;;5.30;99.90;;;;;;4955550;29;20024;-71
2021/12/18 12:13:00;;;;;;;43.35;21.33;;;5.30;99.90;;;;;;4955379;29;20024;-71
2021/12/18 12:15:27;;;;;;;62.53;32.22;;;5.20;99.90;;;;;;4955324;28;20082;-72
2021/12/18 12:17:58;;;;;;;78.30;37.78;;;5.20;99.90;;;;;;4955309;29;20050;-72
2021/12/18 12:20:59;;;;;;;114.15;47.75;;;5.20;99.90;;;;;;4955161;28;20387;-72
2021/12/18 12:23:25;;;;;;;90.18;39.65;;;5.20;99.90;;;;;;4896148;29;20064;-72
2021/12/18 12:25:51;;;;;;;125.90;54.20;;;5.20;99.90;;;;;;4896202;29;20032;-72
2021/12/18 12:28:21;;;;;;;128.65;56.50;;;5.20;99.90;;;;;;4895975;29;20032;-72
2021/12/18 12:31:04;;;;;;;154.27;57.90;;;5.20;99.90;;;;;;4896248;29;20068;-72
2021/12/18 12:33:35;;;;;;;93.43;41.55;;;5.20;99.90;;;;;;4895949;29;20028;-72
2021/12/18 12:36:08;;;;;;;103.17;42.83;;;5.20;99.90;;;;;;4896365;29;20068;-72
2021/12/18 12:38:52;;;;;;;71.03;31.90;;;5.20;99.90;;;;;;4896156;29;20059;-72
2021/12/18 12:41:41;;;;;;;136.85;57.08;;;5.30;99.90;;;;;;4897497;29;20480;-72
2021/12/18 12:44:18;;;;;;;218.70;88.57;;;5.30;99.90;;;;;;4899573;29;20075;-72
2021/12/18 12:46:45;;;;;;;348.88;122.68;;;5.30;99.90;;;;;;4899233;29;20032;-72
2021/12/18 12:49:15;;;;;;;304.80;109.93;;;5.40;99.90;;;;;;4899255;29;20494;-72
2021/12/18 12:52:04;;;;;;;350.50;133.18;;;5.30;99.90;;;;;;4899401;29;20482;-72
2021/12/18 12:54:52;;;;;;;337.63;137.55;;;5.40;99.90;;;;;;4899092;29;20046;-71
2021/12/18 12:57:27;;;;;;;263.08;111.57;;;5.40;99.90;;;;;;4926990;29;20046;-72
2021/12/18 12:59:59;;;;;;;205.43;91.93;;;5.30;99.90;;;;;;4958107;29;20027;-72
2021/12/18 13:02:30;;;;;;;207.18;94.63;;;5.30;99.90;;;;;;4958446;29;20031;-72
2021/12/18 13:05:05;;;;;;;185.40;88.88;;;5.30;99.90;;;;;;4958407;29;20107;-72
2021/12/18 13:07:31;;;;;;;190.90;87.20;;;5.40;99.90;;;;;;4958110;29;20062;-72
2021/12/18 13:09:56;;;;;;;156.65;72.50;;;5.40;99.90;;;;;;4958275;28;20067;-72
2021/12/18 13:12:22;;;;;;;156.23;73.30;;;5.40;99.90;;;;;;4958642;28;20047;-72
2021/12/18 13:14:48;;;;;;;183.35;83.22;;;5.40;99.90;;;;;;4957784;29;20102;-72
2021/12/18 13:17:24;;;;;;;195.90;86.78;;;5.40;99.90;;;;;;4958204;29;20085;-72
2021/12/18 13:19:53;;;;;;;196.70;88.38;;;5.40;99.90;;;;;;4958173;29;20024;-72
2021/12/18 13:22:22;;;;;;;174.02;78.38;;;5.40;99.90;;;;;;4957671;29;20110;-72
2021/12/18 13:25:08;;;;;;;139.00;63.00;;;5.40;99.90;;;;;;4958091;28;20095;-72
2021/12/18 13:27:35;;;;;;;172.60;73.80;;;5.30;99.90;;;;;;4957676;28;20027;-72